sensor_id;sensor_type;location;lat;lon;timestamp;pressure;altitude;pressure_sealevel;temperature;humidity
46886;BME280;32622;48.202;11.326;2024-02-14T00:01:06;1025.95;;;0.57;33.84
46886;BME280;32622;48.202;11.326;2024-02-14T00:03:08;1025.81;;;1.11;33.44
46886;BME280;32622;48.202;11.326;2024-02-14T00:05:11;1025.98;;;0.40;33.54
46886;BME280;32622;48.202;11.326;2024-02-14T00:07:13;1026.04;;;0.29;33.64
46886;BME280;32622;48.202;11.326;2024-02-14T00:09:15;1025.87;;;0.93;33.45
46886;BME280;32622;48.202;11.326;2024-02-14T00:11:18;1025.85;;;1.11;33.66
46886;BME280;32622;48.202;11.326;2024-02-14T00:13:21;1026.03;;;0.47;33.97
46886;BME280;32622;48.202;11.326;2024-02-14T00:15:23;1025.93;;;0.89;33.91
46886;BME280;32622;48.202;11.326;2024-02-14T00:17:25;1025.97;;;0.76;34.01
46886;BME280;32622;48.202;11.326;2024-02-14T00:19:27;1025.92;;;0.79;34.01
46886;BME280;32622;48.202;11.326;2024-02-14T00:21:29;1025.97;;;0.67;33.92
46886;BME280;32622;48.202;11.326;2024-02-14T00:23:31;1025.86;;;0.97;34.08
46886;BME280;32622;48.202;11.326;2024-02-14T00:25:33;1025.75;;;1.25;33.77
46886;BME280;32622;48.202;11.326;2024-02-14T00:27:36;1025.79;;;1.11;33.74
46886;BME280;32622;48.202;11.326;2024-02-14T00:29:38;1025.80;;;1.23;33.62
46886;BME280;32622;48.202;11.326;2024-02-14T00:31:40;1025.74;;;1.54;33.53
46886;BME280;32622;48.202;11.326;2024-02-14T00:33:42;1025.84;;;1.10;33.92
46886;BME280;32622;48.202;11.326;2024-02-14T00:35:44;1025.83;;;1.24;34.10
46886;BME280;32622;48.202;11.326;2024-02-14T00:37:46;1025.86;;;1.00;33.92
46886;BME280;32622;48.202;11.326;2024-02-14T00:39:48;1025.94;;;0.71;34.03
46886;BME280;32622;48.202;11.326;2024-02-14T00:41:51;1025.88;;;0.94;33.97
46886;BME280;32622;48.202;11.326;2024-02-14T00:43:53;1025.79;;;1.36;33.91
46886;BME280;32622;48.202;11.326;2024-02-14T00:45:55;1025.78;;;1.21;33.59
46886;BME280;32622;48.202;11.326;2024-02-14T00:47:57;1025.71;;;1.56;33.86
46886;BME280;32622;48.202;11.326;2024-02-14T00:49:59;1025.76;;;1.46;33.81
46886;BME280;32622;48.202;11.326;2024-02-14T00:52:02;1025.76;;;1.51;33.50
46886;BME280;32622;48.202;11.326;2024-02-14T00:54:04;1025.80;;;1.45;33.76
46886;BME280;32622;48.202;11.326;2024-02-14T00:56:07;1025.73;;;1.76;33.44
46886;BME280;32622;48.202;11.326;2024-02-14T00:58:09;1025.63;;;2.23;33.02
46886;BME280;32622;48.202;11.326;2024-02-14T01:00:12;1025.75;;;1.71;33.31
46886;BME280;32622;48.202;11.326;2024-02-14T01:02:14;1025.81;;;1.52;33.39
46886;BME280;32622;48.202;11.326;2024-02-14T01:04:18;1025.81;;;1.67;33.57
46886;BME280;32622;48.202;11.326;2024-02-14T01:06:20;1025.82;;;1.67;33.67
46886;BME280;32622;48.202;11.326;2024-02-14T01:08:22;1025.80;;;1.75;33.57
46886;BME280;32622;48.202;11.326;2024-02-14T01:10:24;1025.87;;;1.56;33.75
46886;BME280;32622;48.202;11.326;2024-02-14T01:12:26;1025.87;;;1.57;33.86
46886;BME280;32622;48.202;11.326;2024-02-14T01:14:28;1025.81;;;1.80;33.88
46886;BME280;32622;48.202;11.326;2024-02-14T01:16:31;1025.85;;;1.66;33.75
46886;BME280;32622;48.202;11.326;2024-02-14T01:18:33;1025.78;;;1.90;33.60
46886;BME280;32622;48.202;11.326;2024-02-14T01:20:35;1025.90;;;1.39;33.61
46886;BME280;32622;48.202;11.326;2024-02-14T01:22:37;1025.84;;;1.60;33.50
46886;BME280;32622;48.202;11.326;2024-02-14T01:24:39;1025.78;;;1.98;33.58
46886;BME280;32622;48.202;11.326;2024-02-14T01:26:41;1025.79;;;1.93;33.60
46886;BME280;32622;48.202;11.326;2024-02-14T01:28:43;1025.75;;;1.97;33.59
46886;BME280;32622;48.202;11.326;2024-02-14T01:30:45;1025.78;;;1.78;33.73
46886;BME280;32622;48.202;11.326;2024-02-14T01:32:48;1025.72;;;1.94;33.65
46886;BME280;32622;48.202;11.326;2024-02-14T01:34:50;1025.69;;;2.09;33.61
46886;BME280;32622;48.202;11.326;2024-02-14T01:36:52;1025.70;;;1.99;33.53
46886;BME280;32622;48.202;11.326;2024-02-14T01:38:54;1025.65;;;2.19;33.51
46886;BME280;32622;48.202;11.326;2024-02-14T01:40:56;1025.73;;;1.77;33.40
46886;BME280;32622;48.202;11.326;2024-02-14T01:42:58;1025.55;;;2.38;33.37
46886;BME280;32622;48.202;11.326;2024-02-14T01:45:00;1025.65;;;1.85;33.21
46886;BME280;32622;48.202;11.326;2024-02-14T01:47:03;1025.60;;;2.16;33.36
46886;BME280;32622;48.202;11.326;2024-02-14T01:49:05;1025.73;;;1.76;33.34
46886;BME280;32622;48.202;11.326;2024-02-14T01:51:09;1025.62;;;2.32;33.41
46886;BME280;32622;48.202;11.326;2024-02-14T01:53:13;1025.73;;;1.97;33.72
46886;BME280;32622;48.202;11.326;2024-02-14T01:55:15;1025.77;;;1.93;33.72
46886;BME280;32622;48.202;11.326;2024-02-14T01:57:18;1025.89;;;1.60;34.04
46886;BME280;32622;48.202;11.326;2024-02-14T01:59:20;1025.80;;;1.91;34.26
46886;BME280;32622;48.202;11.326;2024-02-14T02:01:24;1025.86;;;1.74;34.14
46886;BME280;32622;48.202;11.326;2024-02-14T02:03:26;1025.83;;;1.81;34.14
46886;BME280;32622;48.202;11.326;2024-02-14T02:05:28;1025.69;;;2.22;33.95
46886;BME280;32622;48.202;11.326;2024-02-14T02:07:32;1025.77;;;1.83;33.90
46886;BME280;32622;48.202;11.326;2024-02-14T02:09:34;1025.70;;;2.06;34.17
46886;BME280;32622;48.202;11.326;2024-02-14T02:11:45;1025.76;;;1.65;34.00
46886;BME280;32622;48.202;11.326;2024-02-14T02:13:47;1025.64;;;2.20;34.00
46886;BME280;32622;48.202;11.326;2024-02-14T02:15:49;1025.63;;;2.28;34.14
46886;BME280;32622;48.202;11.326;2024-02-14T02:17:51;1025.66;;;2.04;33.92
46886;BME280;32622;48.202;11.326;2024-02-14T02:19:54;1025.68;;;2.04;33.73
46886;BME280;32622;48.202;11.326;2024-02-14T02:21:56;1025.65;;;2.27;33.80
46886;BME280;32622;48.202;11.326;2024-02-14T02:23:58;1025.63;;;2.33;33.51
46886;BME280;32622;48.202;11.326;2024-02-14T02:26:00;1025.61;;;2.42;33.37
46886;BME280;32622;48.202;11.326;2024-02-14T02:28:02;1025.71;;;1.93;33.53
46886;BME280;32622;48.202;11.326;2024-02-14T02:30:06;1025.60;;;2.28;33.65
46886;BME280;32622;48.202;11.326;2024-02-14T02:32:08;1025.57;;;2.37;33.36
46886;BME280;32622;48.202;11.326;2024-02-14T02:34:10;1025.60;;;2.22;33.52
46886;BME280;32622;48.202;11.326;2024-02-14T02:36:13;1025.49;;;2.70;33.20
46886;BME280;32622;48.202;11.326;2024-02-14T02:38:15;1025.57;;;2.19;33.30
46886;BME280;32622;48.202;11.326;2024-02-14T02:40:18;1025.56;;;2.21;33.28
46886;BME280;32622;48.202;11.326;2024-02-14T02:42:20;1025.56;;;2.21;33.27
46886;BME280;32622;48.202;11.326;2024-02-14T02:44:22;1025.51;;;2.42;33.35
46886;BME280;32622;48.202;11.326;2024-02-14T02:46:25;1025.55;;;2.28;33.34
46886;BME280;32622;48.202;11.326;2024-02-14T02:48:27;1025.62;;;2.06;33.37
46886;BME280;32622;48.202;11.326;2024-02-14T02:50:29;1025.61;;;2.19;33.32
46886;BME280;32622;48.202;11.326;2024-02-14T02:52:31;1025.52;;;2.62;33.13
46886;BME280;32622;48.202;11.326;2024-02-14T02:54:33;1025.69;;;1.87;33.23
46886;BME280;32622;48.202;11.326;2024-02-14T02:56:35;1025.61;;;2.18;33.36
46886;BME280;32622;48.202;11.326;2024-02-14T02:58:38;1025.61;;;2.05;33.59
46886;BME280;32622;48.202;11.326;2024-02-14T03:00:40;1025.56;;;2.33;33.25
46886;BME280;32622;48.202;11.326;2024-02-14T03:02:42;1025.56;;;2.41;33.03
46886;BME280;32622;48.202;11.326;2024-02-14T03:04:44;1025.47;;;2.75;33.01
46886;BME280;32622;48.202;11.326;2024-02-14T03:06:46;1025.44;;;2.80;33.09
46886;BME280;32622;48.202;11.326;2024-02-14T03:08:49;1025.52;;;2.53;32.87
46886;BME280;32622;48.202;11.326;2024-02-14T03:10:51;1025.61;;;2.44;33.12
46886;BME280;32622;48.202;11.326;2024-02-14T03:12:53;1025.71;;;2.02;33.29
46886;BME280;32622;48.202;11.326;2024-02-14T03:14:55;1025.64;;;2.32;33.29
46886;BME280;32622;48.202;11.326;2024-02-14T03:16:57;1025.38;;;3.37;32.57
46886;BME280;32622;48.202;11.326;2024-02-14T03:18:59;1025.59;;;2.60;32.78
46886;BME280;32622;48.202;11.326;2024-02-14T03:21:02;1025.58;;;2.63;32.75
46886;BME280;32622;48.202;11.326;2024-02-14T03:23:04;1025.56;;;2.72;33.02
46886;BME280;32622;48.202;11.326;2024-02-14T03:25:07;1025.63;;;2.44;33.18
46886;BME280;32622;48.202;11.326;2024-02-14T03:27:09;1025.64;;;2.48;32.90
46886;BME280;32622;48.202;11.326;2024-02-14T03:29:12;1025.66;;;2.36;33.01
46886;BME280;32622;48.202;11.326;2024-02-14T03:31:14;1025.59;;;2.69;33.03
46886;BME280;32622;48.202;11.326;2024-02-14T03:33:16;1025.67;;;2.38;33.03
46886;BME280;32622;48.202;11.326;2024-02-14T03:35:19;1025.67;;;2.45;32.97
46886;BME280;32622;48.202;11.326;2024-02-14T03:37:21;1025.68;;;2.37;33.01
46886;BME280;32622;48.202;11.326;2024-02-14T03:39:23;1025.69;;;2.38;32.98
46886;BME280;32622;48.202;11.326;2024-02-14T03:41:25;1025.65;;;2.67;32.52
46886;BME280;32622;48.202;11.326;2024-02-14T03:43:27;1025.64;;;2.70;32.84
46886;BME280;32622;48.202;11.326;2024-02-14T03:45:29;1025.64;;;2.75;32.77
46886;BME280;32622;48.202;11.326;2024-02-14T03:47:32;1025.71;;;2.35;32.70
46886;BME280;32622;48.202;11.326;2024-02-14T03:49:34;1025.56;;;2.78;32.62
46886;BME280;32622;48.202;11.326;2024-02-14T03:51:36;1025.68;;;2.32;32.81
46886;BME280;32622;48.202;11.326;2024-02-14T03:53:38;1025.57;;;2.65;32.59
46886;BME280;32622;48.202;11.326;2024-02-14T03:55:40;1025.74;;;1.93;32.96
46886;BME280;32622;48.202;11.326;2024-02-14T03:57:42;1025.73;;;1.87;33.27
46886;BME280;32622;48.202;11.326;2024-02-14T03:59:44;1025.61;;;2.35;32.74
46886;BME280;32622;48.202;11.326;2024-02-14T04:01:47;1025.64;;;2.13;32.28
46886;BME280;32622;48.202;11.326;2024-02-14T04:03:49;1025.53;;;2.84;32.12
46886;BME280;32622;48.202;11.326;2024-02-14T04:05:51;1025.58;;;2.48;32.10
46886;BME280;32622;48.202;11.326;2024-02-14T04:07:53;1025.52;;;2.59;32.19
46886;BME280;32622;48.202;11.326;2024-02-14T04:09:55;1025.59;;;2.23;32.57
46886;BME280;32622;48.202;11.326;2024-02-14T04:11:57;1025.78;;;1.38;33.86
46886;BME280;32622;48.202;11.326;2024-02-14T04:14:00;1025.91;;;0.92;34.44
46886;BME280;32622;48.202;11.326;2024-02-14T04:16:02;1025.68;;;2.03;33.40
46886;BME280;32622;48.202;11.326;2024-02-14T04:18:04;1025.69;;;2.07;33.09
46886;BME280;32622;48.202;11.326;2024-02-14T04:20:08;1025.87;;;1.25;33.67
46886;BME280;32622;48.202;11.326;2024-02-14T04:22:10;1025.76;;;1.91;33.53
46886;BME280;32622;48.202;11.326;2024-02-14T04:24:13;1025.73;;;2.00;33.62
46886;BME280;32622;48.202;11.326;2024-02-14T04:26:19;1025.73;;;2.06;33.28
46886;BME280;32622;48.202;11.326;2024-02-14T04:28:21;1025.75;;;2.05;33.16
46886;BME280;32622;48.202;11.326;2024-02-14T04:30:23;1025.85;;;1.64;33.72
46886;BME280;32622;48.202;11.326;2024-02-14T04:32:26;1025.71;;;2.23;33.39
46886;BME280;32622;48.202;11.326;2024-02-14T04:34:28;1025.80;;;1.77;32.93
46886;BME280;32622;48.202;11.326;2024-02-14T04:36:30;1025.69;;;2.18;33.01
46886;BME280;32622;48.202;11.326;2024-02-14T04:38:32;1025.71;;;2.28;33.01
46886;BME280;32622;48.202;11.326;2024-02-14T04:40:34;1025.62;;;2.68;33.05
46886;BME280;32622;48.202;11.326;2024-02-14T04:42:36;1025.77;;;2.11;33.06
46886;BME280;32622;48.202;11.326;2024-02-14T04:44:38;1025.74;;;2.06;33.08
46886;BME280;32622;48.202;11.326;2024-02-14T04:46:41;1025.60;;;2.70;32.90
46886;BME280;32622;48.202;11.326;2024-02-14T04:48:43;1025.66;;;2.47;32.88
46886;BME280;32622;48.202;11.326;2024-02-14T04:50:45;1025.70;;;2.38;32.74
46886;BME280;32622;48.202;11.326;2024-02-14T04:52:47;1025.69;;;2.48;32.82
46886;BME280;32622;48.202;11.326;2024-02-14T04:54:49;1025.69;;;2.44;32.81
46886;BME280;32622;48.202;11.326;2024-02-14T04:56:51;1025.30;;;3.83;31.66
46886;BME280;32622;48.202;11.326;2024-02-14T04:58:54;1025.51;;;3.06;32.16
46886;BME280;32622;48.202;11.326;2024-02-14T05:00:56;1025.59;;;2.78;32.47
46886;BME280;32622;48.202;11.326;2024-02-14T05:02:58;1025.57;;;2.75;32.53
46886;BME280;32622;48.202;11.326;2024-02-14T05:05:00;1025.48;;;2.96;32.25
46886;BME280;32622;48.202;11.326;2024-02-14T05:07:05;1025.50;;;2.81;32.19
46886;BME280;32622;48.202;11.326;2024-02-14T05:09:07;1025.45;;;3.08;32.32
46886;BME280;32622;48.202;11.326;2024-02-14T05:11:10;1025.51;;;2.83;32.18
46886;BME280;32622;48.202;11.326;2024-02-14T05:13:12;1025.48;;;2.69;32.31
46886;BME280;32622;48.202;11.326;2024-02-14T05:15:15;1025.49;;;2.77;32.23
46886;BME280;32622;48.202;11.326;2024-02-14T05:17:18;1025.55;;;2.76;32.33
46886;BME280;32622;48.202;11.326;2024-02-14T05:19:20;1025.56;;;2.89;32.32
46886;BME280;32622;48.202;11.326;2024-02-14T05:21:22;1025.57;;;2.93;32.40
46886;BME280;32622;48.202;11.326;2024-02-14T05:23:24;1025.54;;;2.91;32.38
46886;BME280;32622;48.202;11.326;2024-02-14T05:25:27;1025.54;;;2.73;32.69
46886;BME280;32622;48.202;11.326;2024-02-14T05:27:29;1025.45;;;3.17;32.67
46886;BME280;32622;48.202;11.326;2024-02-14T05:29:31;1025.44;;;3.08;32.52
46886;BME280;32622;48.202;11.326;2024-02-14T05:31:43;1025.41;;;3.22;32.34
46886;BME280;32622;48.202;11.326;2024-02-14T05:33:45;1025.53;;;2.91;32.73
46886;BME280;32622;48.202;11.326;2024-02-14T05:35:47;1025.53;;;2.98;32.76
46886;BME280;32622;48.202;11.326;2024-02-14T05:37:50;1025.46;;;3.13;32.70
46886;BME280;32622;48.202;11.326;2024-02-14T05:39:52;1025.48;;;3.17;32.63
46886;BME280;32622;48.202;11.326;2024-02-14T05:41:54;1025.54;;;2.95;32.51
46886;BME280;32622;48.202;11.326;2024-02-14T05:43:56;1025.49;;;3.26;32.57
46886;BME280;32622;48.202;11.326;2024-02-14T05:45:58;1025.52;;;3.00;32.47
46886;BME280;32622;48.202;11.326;2024-02-14T05:48:01;1025.50;;;3.33;32.56
46886;BME280;32622;48.202;11.326;2024-02-14T05:50:04;1025.59;;;2.89;32.62
46886;BME280;32622;48.202;11.326;2024-02-14T05:52:06;1025.60;;;2.95;32.66
46886;BME280;32622;48.202;11.326;2024-02-14T05:54:09;1025.56;;;3.25;32.72
46886;BME280;32622;48.202;11.326;2024-02-14T05:56:11;1025.57;;;3.18;32.57
46886;BME280;32622;48.202;11.326;2024-02-14T05:58:13;1025.62;;;2.89;32.44
46886;BME280;32622;48.202;11.326;2024-02-14T06:00:16;1025.33;;;4.12;32.17
46886;BME280;32622;48.202;11.326;2024-02-14T06:02:18;1025.28;;;4.18;31.92
46886;BME280;32622;48.202;11.326;2024-02-14T06:04:20;1025.46;;;3.45;32.14
46886;BME280;32622;48.202;11.326;2024-02-14T06:06:22;1025.47;;;3.55;32.46
46886;BME280;32622;48.202;11.326;2024-02-14T06:08:24;1025.44;;;3.63;32.42
46886;BME280;32622;48.202;11.326;2024-02-14T06:10:26;1025.35;;;3.90;32.30
46886;BME280;32622;48.202;11.326;2024-02-14T06:12:29;1025.30;;;3.87;31.64
46886;BME280;32622;48.202;11.326;2024-02-14T06:14:31;1025.42;;;3.82;31.82
46886;BME280;32622;48.202;11.326;2024-02-14T06:16:33;1025.58;;;3.20;32.37
46886;BME280;32622;48.202;11.326;2024-02-14T06:18:35;1025.32;;;4.08;31.58
46886;BME280;32622;48.202;11.326;2024-02-14T06:20:37;1025.42;;;4.05;31.75
46886;BME280;32622;48.202;11.326;2024-02-14T06:22:39;1025.36;;;4.31;31.47
46886;BME280;32622;48.202;11.326;2024-02-14T06:24:41;1025.86;;;2.32;33.49
46886;BME280;32622;48.202;11.326;2024-02-14T06:26:43;1025.72;;;2.79;33.16
46886;BME280;32622;48.202;11.326;2024-02-14T06:28:46;1025.51;;;3.53;32.41
46886;BME280;32622;48.202;11.326;2024-02-14T06:30:48;1025.51;;;3.61;32.21
46886;BME280;32622;48.202;11.326;2024-02-14T06:32:50;1025.42;;;4.19;31.65
46886;BME280;32622;48.202;11.326;2024-02-14T06:34:53;1025.77;;;2.94;32.85
46886;BME280;32622;48.202;11.326;2024-02-14T06:36:55;1025.62;;;3.47;32.31
46886;BME280;32622;48.202;11.326;2024-02-14T06:38:57;1025.54;;;3.74;32.00
46886;BME280;32622;48.202;11.326;2024-02-14T06:40:59;1025.50;;;3.90;31.89
46886;BME280;32622;48.202;11.326;2024-02-14T06:43:01;1025.64;;;3.66;32.20
46886;BME280;32622;48.202;11.326;2024-02-14T06:45:05;1025.61;;;3.68;32.38
46886;BME280;32622;48.202;11.326;2024-02-14T06:47:08;1025.74;;;3.24;32.46
46886;BME280;32622;48.202;11.326;2024-02-14T06:49:10;1025.81;;;2.90;32.64
46886;BME280;32622;48.202;11.326;2024-02-14T06:51:12;1025.67;;;3.57;32.79
46886;BME280;32622;48.202;11.326;2024-02-14T06:53:14;1025.61;;;3.82;32.30
46886;BME280;32622;48.202;11.326;2024-02-14T06:55:17;1025.69;;;3.81;32.33
46886;BME280;32622;48.202;11.326;2024-02-14T06:57:19;1025.74;;;3.86;32.10
46886;BME280;32622;48.202;11.326;2024-02-14T06:59:21;1025.82;;;3.72;32.29
46886;BME280;32622;48.202;11.326;2024-02-14T07:01:23;1025.93;;;3.47;32.29
46886;BME280;32622;48.202;11.326;2024-02-14T07:03:25;1025.86;;;3.92;32.07
46886;BME280;32622;48.202;11.326;2024-02-14T07:05:27;1025.94;;;3.65;32.02
46886;BME280;32622;48.202;11.326;2024-02-14T07:07:29;1026.08;;;3.14;32.17
46886;BME280;32622;48.202;11.326;2024-02-14T07:09:32;1025.98;;;3.68;32.00
46886;BME280;32622;48.202;11.326;2024-02-14T07:11:34;1026.18;;;3.10;32.40
46886;BME280;32622;48.202;11.326;2024-02-14T07:13:36;1025.90;;;4.35;32.02
46886;BME280;32622;48.202;11.326;2024-02-14T07:15:38;1025.97;;;4.06;32.01
46886;BME280;32622;48.202;11.326;2024-02-14T07:17:40;1026.18;;;3.30;32.45
46886;BME280;32622;48.202;11.326;2024-02-14T07:19:42;1026.15;;;3.50;32.48
46886;BME280;32622;48.202;11.326;2024-02-14T07:21:44;1026.09;;;3.55;32.24
46886;BME280;32622;48.202;11.326;2024-02-14T07:23:47;1026.03;;;3.72;32.41
46886;BME280;32622;48.202;11.326;2024-02-14T07:25:49;1025.98;;;4.01;32.20
46886;BME280;32622;48.202;11.326;2024-02-14T07:27:51;1026.02;;;3.85;32.27
46886;BME280;32622;48.202;11.326;2024-02-14T07:29:53;1025.97;;;4.08;32.03
46886;BME280;32622;48.202;11.326;2024-02-14T07:31:55;1026.00;;;4.13;32.09
46886;BME280;32622;48.202;11.326;2024-02-14T07:33:58;1025.95;;;4.31;31.96
46886;BME280;32622;48.202;11.326;2024-02-14T07:36:00;1026.02;;;4.01;31.84
46886;BME280;32622;48.202;11.326;2024-02-14T07:38:02;1025.93;;;4.39;31.89
46886;BME280;32622;48.202;11.326;2024-02-14T07:40:05;1025.95;;;4.48;31.72
46886;BME280;32622;48.202;11.326;2024-02-14T07:42:07;1025.93;;;4.88;31.40
46886;BME280;32622;48.202;11.326;2024-02-14T07:44:09;1025.98;;;4.57;31.41
46886;BME280;32622;48.202;11.326;2024-02-14T07:46:16;1026.02;;;4.38;31.58
46886;BME280;32622;48.202;11.326;2024-02-14T07:48:18;1026.00;;;4.33;31.39
46886;BME280;32622;48.202;11.326;2024-02-14T07:50:20;1025.91;;;4.87;31.26
46886;BME280;32622;48.202;11.326;2024-02-14T07:52:22;1025.80;;;5.41;30.95
46886;BME280;32622;48.202;11.326;2024-02-14T07:54:25;1025.80;;;5.44;30.88
46886;BME280;32622;48.202;11.326;2024-02-14T07:56:27;1025.91;;;5.02;30.80
46886;BME280;32622;48.202;11.326;2024-02-14T07:58:29;1025.94;;;4.94;30.90
46886;BME280;32622;48.202;11.326;2024-02-14T08:00:31;1025.81;;;5.47;30.74
46886;BME280;32622;48.202;11.326;2024-02-14T08:02:33;1026.01;;;4.79;30.75
46886;BME280;32622;48.202;11.326;2024-02-14T08:04:35;1025.82;;;5.61;30.51
46886;BME280;32622;48.202;11.326;2024-02-14T08:06:37;1025.72;;;5.92;30.88
46886;BME280;32622;48.202;11.326;2024-02-14T08:08:40;1025.80;;;5.58;30.92
46886;BME280;32622;48.202;11.326;2024-02-14T08:10:42;1025.85;;;5.49;30.93
46886;BME280;32622;48.202;11.326;2024-02-14T08:12:44;1025.88;;;5.43;30.80
46886;BME280;32622;48.202;11.326;2024-02-14T08:14:46;1025.96;;;5.29;30.96
46886;BME280;32622;48.202;11.326;2024-02-14T08:16:48;1025.89;;;5.69;31.80
46886;BME280;32622;48.202;11.326;2024-02-14T08:18:50;1026.01;;;5.19;31.08
46886;BME280;32622;48.202;11.326;2024-02-14T08:20:53;1026.02;;;5.08;31.04
46886;BME280;32622;48.202;11.326;2024-02-14T08:22:55;1025.82;;;5.86;30.78
46886;BME280;32622;48.202;11.326;2024-02-14T08:24:57;1025.80;;;6.11;30.48
46886;BME280;32622;48.202;11.326;2024-02-14T08:27:00;1025.92;;;5.60;30.00
46886;BME280;32622;48.202;11.326;2024-02-14T08:29:02;1025.84;;;5.92;30.13
46886;BME280;32622;48.202;11.326;2024-02-14T08:31:10;1025.82;;;5.75;30.31
46886;BME280;32622;48.202;11.326;2024-02-14T08:33:12;1025.79;;;5.80;29.77
46886;BME280;32622;48.202;11.326;2024-02-14T08:35:14;1025.72;;;6.20;29.86
46886;BME280;32622;48.202;11.326;2024-02-14T08:37:16;1025.79;;;5.83;29.64
46886;BME280;32622;48.202;11.326;2024-02-14T08:39:19;1025.67;;;6.26;29.47
46886;BME280;32622;48.202;11.326;2024-02-14T08:41:21;1025.65;;;6.34;29.72
46886;BME280;32622;48.202;11.326;2024-02-14T08:43:23;1025.79;;;5.87;29.37
46886;BME280;32622;48.202;11.326;2024-02-14T08:45:25;1025.73;;;6.15;29.64
46886;BME280;32622;48.202;11.326;2024-02-14T08:47:27;1025.97;;;4.98;30.01
46886;BME280;32622;48.202;11.326;2024-02-14T08:49:29;1025.75;;;5.92;30.07
46886;BME280;32622;48.202;11.326;2024-02-14T08:51:32;1025.63;;;6.29;29.27
46886;BME280;32622;48.202;11.326;2024-02-14T08:53:34;1025.63;;;6.23;29.48
46886;BME280;32622;48.202;11.326;2024-02-14T08:55:36;1025.63;;;6.10;29.39
46886;BME280;32622;48.202;11.326;2024-02-14T08:57:38;1025.51;;;6.49;28.91
46886;BME280;32622;48.202;11.326;2024-02-14T08:59:40;1025.53;;;6.26;29.31
46886;BME280;32622;48.202;11.326;2024-02-14T09:01:43;1025.66;;;5.97;29.15
46886;BME280;32622;48.202;11.326;2024-02-14T09:03:45;1025.72;;;5.60;29.60
46886;BME280;32622;48.202;11.326;2024-02-14T09:05:47;1025.60;;;6.15;30.07
46886;BME280;32622;48.202;11.326;2024-02-14T09:07:49;1025.73;;;5.60;30.64
46886;BME280;32622;48.202;11.326;2024-02-14T09:09:51;1025.66;;;5.99;29.81
46886;BME280;32622;48.202;11.326;2024-02-14T09:11:53;1025.56;;;6.34;29.59
46886;BME280;32622;48.202;11.326;2024-02-14T09:13:55;1025.67;;;5.91;29.85
46886;BME280;32622;48.202;11.326;2024-02-14T09:15:57;1025.68;;;6.00;29.39
46886;BME280;32622;48.202;11.326;2024-02-14T09:17:59;1025.55;;;6.41;29.13
46886;BME280;32622;48.202;11.326;2024-02-14T09:20:02;1025.60;;;6.14;29.58
46886;BME280;32622;48.202;11.326;2024-02-14T09:22:04;1025.46;;;6.62;28.82
46886;BME280;32622;48.202;11.326;2024-02-14T09:24:06;1025.38;;;6.96;28.42
46886;BME280;32622;48.202;11.326;2024-02-14T09:26:08;1025.56;;;6.22;28.84
46886;BME280;32622;48.202;11.326;2024-02-14T09:28:11;1025.53;;;6.18;28.79
46886;BME280;32622;48.202;11.326;2024-02-14T09:30:13;1025.34;;;6.84;28.32
46886;BME280;32622;48.202;11.326;2024-02-14T09:32:15;1025.38;;;6.76;28.20
46886;BME280;32622;48.202;11.326;2024-02-14T09:34:18;1025.29;;;7.27;28.11
46886;BME280;32622;48.202;11.326;2024-02-14T09:36:20;1025.37;;;7.05;27.98
46886;BME280;32622;48.202;11.326;2024-02-14T09:38:22;1025.32;;;7.44;27.63
46886;BME280;32622;48.202;11.326;2024-02-14T09:40:24;1025.34;;;7.31;28.05
46886;BME280;32622;48.202;11.326;2024-02-14T09:42:31;1025.35;;;7.37;27.73
46886;BME280;32622;48.202;11.326;2024-02-14T09:44:38;1025.28;;;7.67;27.94
46886;BME280;32622;48.202;11.326;2024-02-14T09:46:42;1025.15;;;8.25;27.63
46886;BME280;32622;48.202;11.326;2024-02-14T09:48:44;1025.14;;;8.14;26.42
46886;BME280;32622;48.202;11.326;2024-02-14T09:50:48;1025.20;;;7.86;26.81
46886;BME280;32622;48.202;11.326;2024-02-14T09:52:50;1025.18;;;7.82;26.65
46886;BME280;32622;48.202;11.326;2024-02-14T09:54:53;1025.06;;;8.21;26.54
46886;BME280;32622;48.202;11.326;2024-02-14T09:56:56;1024.99;;;8.33;26.11
46886;BME280;32622;48.202;11.326;2024-02-14T09:59:00;1024.90;;;8.75;26.02
46886;BME280;32622;48.202;11.326;2024-02-14T10:01:04;1025.16;;;7.80;26.25
46886;BME280;32622;48.202;11.326;2024-02-14T10:03:07;1024.98;;;8.59;25.74
46886;BME280;32622;48.202;11.326;2024-02-14T10:05:10;1024.86;;;9.23;25.28
46886;BME280;32622;48.202;11.326;2024-02-14T10:07:12;1025.04;;;8.38;25.56
46886;BME280;32622;48.202;11.326;2024-02-14T10:09:19;1024.85;;;9.28;24.95
46886;BME280;32622;48.202;11.326;2024-02-14T10:11:21;1024.82;;;9.09;25.42
46886;BME280;32622;48.202;11.326;2024-02-14T10:13:26;1024.76;;;9.27;24.94
46886;BME280;32622;48.202;11.326;2024-02-14T10:15:28;1024.86;;;8.78;25.85
46886;BME280;32622;48.202;11.326;2024-02-14T10:17:32;1024.94;;;8.55;25.69
46886;BME280;32622;48.202;11.326;2024-02-14T10:19:34;1025.02;;;8.03;25.74
46886;BME280;32622;48.202;11.326;2024-02-14T10:21:36;1024.86;;;8.50;26.19
46886;BME280;32622;48.202;11.326;2024-02-14T10:23:39;1024.88;;;8.46;26.07
46886;BME280;32622;48.202;11.326;2024-02-14T10:25:41;1024.83;;;8.76;25.94
46886;BME280;32622;48.202;11.326;2024-02-14T10:27:44;1024.87;;;8.82;25.53
46886;BME280;32622;48.202;11.326;2024-02-14T10:29:46;1024.86;;;8.90;25.85
46886;BME280;32622;48.202;11.326;2024-02-14T10:31:48;1024.87;;;8.77;25.79
46886;BME280;32622;48.202;11.326;2024-02-14T10:33:50;1024.82;;;8.95;25.70
46886;BME280;32622;48.202;11.326;2024-02-14T10:35:54;1024.74;;;9.22;25.96
46886;BME280;32622;48.202;11.326;2024-02-14T10:37:58;1024.69;;;9.26;25.48
46886;BME280;32622;48.202;11.326;2024-02-14T10:40:02;1024.66;;;9.37;25.63
46886;BME280;32622;48.202;11.326;2024-02-14T10:42:04;1024.86;;;8.68;26.30
46886;BME280;32622;48.202;11.326;2024-02-14T10:44:06;1024.68;;;9.30;26.10
46886;BME280;32622;48.202;11.326;2024-02-14T10:46:15;1024.62;;;9.47;26.56
46886;BME280;32622;48.202;11.326;2024-02-14T10:48:19;1024.65;;;9.26;26.42
46886;BME280;32622;48.202;11.326;2024-02-14T10:50:24;1024.64;;;9.25;26.41
46886;BME280;32622;48.202;11.326;2024-02-14T10:52:31;1024.51;;;9.87;26.55
46886;BME280;32622;48.202;11.326;2024-02-14T10:54:35;1024.67;;;9.10;27.33
46886;BME280;32622;48.202;11.326;2024-02-14T10:56:40;1024.73;;;8.96;27.18